Time;durP1;ratioP1;P1;durP2;ratioP2;P2;SDS_P1;SDS_P2;PMS_P1;PMS_P2;Temp;Humidity;BMP_temperature;BMP_pressure;BME280_temperature;BME280_humidity;BME280_pressure;Samples;Min_cycle;Max_cycle;Signal;HPM_P1;HPM_P2
2022/07/21 00:01:01;;;;;;;;;;;20.20;99.90;;;;;;5071992;28;19985;-57
2022/07/21 00:03:27;;;;;;;;;;;20.30;99.90;;;;;;5072181;28;19913;-57
2022/07/21 00:05:52;;;;;;;;;;;20.30;99.90;;;;;;5065645;28;20285;-55
2022/07/21 00:08:18;;;;;;;;;;;20.30;99.90;;;;;;5071639;28;19908;-58
2022/07/21 00:10:43;;;;;;;;;;;20.30;99.90;;;;;;5071905;28;19909;-56
2022/07/21 00:13:09;;;;;;;;;;;20.30;99.90;;;;;;5071558;28;19913;-58
2022/07/21 00:15:38;;;;;;;;;;;20.30;99.90;;;;;;5071866;28;20357;-57
2022/07/21 00:18:03;;;;;;;;;;;20.40;99.90;;;;;;5071537;28;19912;-56
2022/07/21 00:20:30;;;;;;;;;;;20.40;99.90;;;;;;5072055;28;19915;-56
2022/07/21 00:22:56;;;;;;;;;;;20.40;99.90;;;;;;5072119;28;19916;-57
2022/07/21 00:25:21;;;;;;;;;;;20.40;99.90;;;;;;5071681;28;20289;-57
2022/07/21 00:27:47;;;;;;;;;;;20.40;99.90;;;;;;5071030;28;20004;-56
2022/07/21 00:30:13;;;;;;;;;;;20.40;99.90;;;;;;5071848;28;19920;-57
2022/07/21 00:32:39;;;;;;;;;;;20.40;99.90;;;;;;5071403;28;19950;-57
2022/07/21 00:35:05;;;;;;;;;;;20.40;99.90;;;;;;5071051;28;19982;-57
2022/07/21 00:37:30;;;;;;;;;;;20.40;99.90;;;;;;5053416;28;20049;-57
2022/07/21 00:39:56;;;;;;;;;;;20.40;99.90;;;;;;5071358;28;20023;-56
2022/07/21 00:42:25;;;;;;;;;;;20.40;99.90;;;;;;5071267;28;19909;-57
2022/07/21 00:44:51;;;;;;;;;;;20.30;99.90;;;;;;5068775;28;20034;-57
2022/07/21 00:47:20;;;;;;;;;;;20.30;99.90;;;;;;5067310;28;20034;-56
2022/07/21 00:49:46;;;;;;;;;;;20.30;99.90;;;;;;5070917;28;19925;-56
2022/07/21 00:52:12;;;;;;;;;;;20.30;99.90;;;;;;5071571;28;19966;-57
2022/07/21 00:54:37;;;;;;;;;;;20.30;99.90;;;;;;5069937;28;19997;-57
2022/07/21 00:57:03;;;;;;;;;;;20.30;99.90;;;;;;5071101;28;19909;-57
2022/07/21 00:59:29;;;;;;;;;;;20.20;99.90;;;;;;5071160;28;19919;-55
2022/07/21 01:01:54;;;;;;;;;;;20.20;99.90;;;;;;5071244;28;19915;-57
2022/07/21 01:04:20;;;;;;;;;;;20.20;99.90;;;;;;5070866;28;19919;-56
2022/07/21 01:06:45;;;;;;;;;;;20.20;99.90;;;;;;5070548;28;19913;-56
2022/07/21 01:09:11;;;;;;;;;;;20.10;99.90;;;;;;5070896;28;20392;-58
2022/07/21 01:11:37;;;;;;;;;;;20.10;99.90;;;;;;5070783;28;19954;-57
2022/07/21 01:14:02;;;;;;;;;;;20.10;99.90;;;;;;5070827;28;19908;-56
2022/07/21 01:16:28;;;;;;;;;;;20.10;99.90;;;;;;5071007;28;19916;-57
2022/07/21 01:18:53;;;;;;;;;;;20.10;99.90;;;;;;5071253;28;20007;-57
2022/07/21 01:21:19;;;;;;;;;;;20.00;99.90;;;;;;5071121;28;19912;-57
2022/07/21 01:23:44;;;;;;;;;;;20.00;99.90;;;;;;5070740;28;19915;-58
2022/07/21 01:26:10;;;;;;;;;;;20.00;99.90;;;;;;5063929;28;19913;-57
2022/07/21 01:28:35;;;;;;;;;;;20.00;99.90;;;;;;5071144;28;19970;-56
2022/07/21 01:31:01;;;;;;;;;;;20.00;99.90;;;;;;5070918;28;20446;-58
2022/07/21 01:33:26;;;;;;;;;;;20.00;99.90;;;;;;5071168;28;19908;-57
2022/07/21 01:35:52;;;;;;;;;;;20.00;99.90;;;;;;5070809;28;20406;-56
2022/07/21 01:43:46;;;;;;;;;;;19.90;99.90;;;;;;5071053;28;19915;-57
2022/07/21 01:46:12;;;;;;;;;;;19.90;99.90;;;;;;5073747;28;19912;-57
2022/07/21 01:48:42;;;;;;;;;;;19.80;99.90;;;;;;5074504;28;19954;-57
2022/07/21 01:51:07;;;;;;;;;;;19.80;99.90;;;;;;5069086;28;19909;-56
2022/07/21 01:53:33;;;;;;;;;;;19.80;99.90;;;;;;5074500;28;20049;-58
2022/07/21 01:55:58;;;;;;;;;;;19.80;99.90;;;;;;5074367;28;20278;-57
2022/07/21 01:58:24;;;;;;;;;;;19.80;99.90;;;;;;5074577;28;20293;-57
2022/07/21 02:00:49;;;;;;;;;;;19.80;99.90;;;;;;5075003;28;19915;-58
2022/07/21 02:03:15;;;;;;;;;;;19.80;99.90;;;;;;5069671;28;20290;-55
2022/07/21 02:05:40;;;;;;;;;;;19.70;99.90;;;;;;5066089;28;19923;-58
2022/07/21 02:08:06;;;;;;;;;;;19.70;99.90;;;;;;5074394;28;20456;-57
2022/07/21 02:10:32;;;;;;;;;;;19.80;99.90;;;;;;5074185;28;19908;-57
2022/07/21 02:12:57;;;;;;;;;;;19.70;99.90;;;;;;5074584;28;19923;-57
2022/07/21 02:15:23;;;;;;;;;;;19.70;99.90;;;;;;5073400;28;19917;-58
2022/07/21 02:17:48;;;;;;;;;;;19.70;99.90;;;;;;5073989;28;20361;-56
2022/07/21 02:20:14;;;;;;;;;;;19.70;99.90;;;;;;5072600;28;19908;-56
2022/07/21 02:22:39;;;;;;;;;;;19.70;99.90;;;;;;5042418;28;19912;-56
2022/07/21 02:25:05;;;;;;;;;;;19.70;99.90;;;;;;5073882;28;19958;-57
2022/07/21 02:27:31;;;;;;;;;;;19.70;99.90;;;;;;5069422;28;20613;-56
2022/07/21 02:29:56;;;;;;;;;;;19.70;99.90;;;;;;5073847;28;20003;-56
2022/07/21 02:32:22;;;;;;;;;;;19.70;99.90;;;;;;5073888;28;19908;-57
2022/07/21 02:34:47;;;;;;;;;;;19.70;99.90;;;;;;5073302;28;19912;-54
2022/07/21 02:37:13;;;;;;;;;;;19.70;99.90;;;;;;5073399;28;19913;-56
2022/07/21 02:39:38;;;;;;;;;;;19.70;99.90;;;;;;5073610;28;19919;-56
2022/07/21 02:42:04;;;;;;;;;;;19.70;99.90;;;;;;5074213;28;20373;-57
2022/07/21 02:44:30;;;;;;;;;;;19.70;99.90;;;;;;5067361;28;19912;-56
2022/07/21 02:46:56;;;;;;;;;;;19.70;99.90;;;;;;5073667;28;20339;-57
2022/07/21 02:49:22;;;;;;;;;;;19.70;99.90;;;;;;5073552;28;20430;-53
2022/07/21 02:51:47;;;;;;;;;;;19.70;99.90;;;;;;5073396;28;19939;-56
2022/07/21 02:54:13;;;;;;;;;;;19.70;99.90;;;;;;5073535;28;20381;-56
2022/07/21 02:56:38;;;;;;;;;;;19.70;99.90;;;;;;5073284;28;20011;-57
2022/07/21 02:59:04;;;;;;;;;;;19.70;99.90;;;;;;5073769;28;19915;-57
2022/07/21 03:01:29;;;;;;;;;;;19.70;99.90;;;;;;5073203;28;20377;-55
2022/07/21 03:03:55;;;;;;;;;;;19.70;99.90;;;;;;5073324;28;20421;-57
2022/07/21 03:06:20;;;;;;;;;;;19.60;99.90;;;;;;5072986;28;19908;-56
2022/07/21 03:08:46;;;;;;;;;;;19.60;99.90;;;;;;5073187;28;19908;-57
2022/07/21 03:11:11;;;;;;;;;;;19.60;99.90;;;;;;5073543;28;20406;-56
2022/07/21 03:13:37;;;;;;;;;;;19.60;99.90;;;;;;5073218;28;20408;-57
2022/07/21 03:16:02;;;;;;;;;;;19.60;99.90;;;;;;5073011;28;19960;-57
2022/07/21 03:18:28;;;;;;;;;;;19.60;99.90;;;;;;5068432;28;19916;-57
2022/07/21 03:20:54;;;;;;;;;;;19.50;99.90;;;;;;5072889;28;19915;-57
2022/07/21 03:23:19;;;;;;;;;;;19.50;99.90;;;;;;5066045;28;20357;-56
2022/07/21 03:25:45;;;;;;;;;;;19.50;99.90;;;;;;5073222;28;19916;-57
2022/07/21 03:28:10;;;;;;;;;;;19.50;99.90;;;;;;5072716;28;19916;-55
2022/07/21 03:30:36;;;;;;;;;;;19.50;99.90;;;;;;5071804;28;20374;-58
2022/07/21 03:33:02;;;;;;;;;;;19.50;99.90;;;;;;5073165;28;19908;-56
2022/07/21 03:35:27;;;;;;;;;;;19.40;99.90;;;;;;5065490;28;20431;-57
2022/07/21 03:37:54;;;;;;;;;;;19.40;99.90;;;;;;5072878;28;19912;-58
2022/07/21 03:40:23;;;;;;;;;;;19.40;99.90;;;;;;5054196;28;20289;-58
2022/07/21 03:42:50;;;;;;;;;;;19.30;99.90;;;;;;5071755;28;20385;-56
2022/07/21 03:45:16;;;;;;;;;;;19.20;99.90;;;;;;5072634;28;19915;-56
2022/07/21 03:47:41;;;;;;;;;;;19.20;99.90;;;;;;5072392;28;19908;-57
2022/07/21 03:50:07;;;;;;;;;;;19.20;99.90;;;;;;5072061;28;19999;-56
2022/07/21 03:52:33;;;;;;;;;;;19.20;99.90;;;;;;5072471;28;19908;-57
2022/07/21 03:55:07;;;;;;;;;;;19.10;99.90;;;;;;5072240;28;19942;-57
2022/07/21 03:57:37;;;;;;;;;;;19.10;99.90;;;;;;5072522;28;19912;-57
2022/07/21 04:00:04;;;;;;;;;;;19.10;99.90;;;;;;5072341;28;20395;-57
2022/07/21 04:02:29;;;;;;;;;;;19.00;99.90;;;;;;5072069;28;19913;-58
2022/07/21 04:04:55;;;;;;;;;;;19.00;99.90;;;;;;5071670;28;19916;-58
2022/07/21 04:07:20;;;;;;;;;;;19.00;99.90;;;;;;5071064;28;19999;-56
2022/07/21 04:09:46;;;;;;;;;;;19.00;99.90;;;;;;5071515;28;19918;-57
2022/07/21 04:12:11;;;;;;;;;;;19.00;99.90;;;;;;5072004;28;19919;-55
2022/07/21 04:14:37;;;;;;;;;;;19.00;99.90;;;;;;5053849;28;19955;-55
2022/07/21 04:17:02;;;;;;;;;;;19.00;99.90;;;;;;5071082;28;19962;-57
2022/07/21 04:19:28;;;;;;;;;;;19.00;99.90;;;;;;5071344;28;19912;-57
2022/07/21 04:21:54;;;;;;;;;;;19.00;99.90;;;;;;5071707;28;20688;-56
2022/07/21 04:24:19;;;;;;;;;;;19.00;99.90;;;;;;5072407;28;19912;-55
2022/07/21 04:26:45;;;;;;;;;;;19.00;99.90;;;;;;5071473;28;19912;-56
2022/07/21 04:29:10;;;;;;;;;;;19.00;99.90;;;;;;5071580;28;20007;-56
2022/07/21 04:31:36;;;;;;;;;;;19.00;99.90;;;;;;5071625;28;19909;-57
2022/07/21 04:34:01;;;;;;;;;;;19.00;99.90;;;;;;5070311;28;19959;-56
2022/07/21 04:36:27;;;;;;;;;;;19.10;99.90;;;;;;5072029;28;19917;-57
2022/07/21 04:38:52;;;;;;;;;;;19.10;99.90;;;;;;5053213;28;20357;-57
2022/07/21 04:41:18;;;;;;;;;;;19.10;99.90;;;;;;5071473;28;20023;-57
2022/07/21 04:43:43;;;;;;;;;;;19.10;99.90;;;;;;5070729;28;19924;-57
2022/07/21 04:46:09;;;;;;;;;;;19.10;99.90;;;;;;5071174;28;19909;-57
2022/07/21 04:48:34;;;;;;;;;;;19.10;99.90;;;;;;5070837;28;19912;-57
2022/07/21 04:51:00;;;;;;;;;;;19.10;99.90;;;;;;5071210;28;19909;-57
2022/07/21 04:53:25;;;;;;;;;;;19.10;99.90;;;;;;5040289;28;19908;-58
2022/07/21 04:55:51;;;;;;;;;;;19.10;99.90;;;;;;5071157;28;19917;-57
2022/07/21 04:58:16;;;;;;;;;;;19.10;99.90;;;;;;5071970;28;20384;-56
2022/07/21 05:00:42;;;;;;;;;;;19.10;99.90;;;;;;5052374;28;20321;-56
2022/07/21 05:03:07;;;;;;;;;;;19.20;99.90;;;;;;5071355;28;19955;-57
2022/07/21 05:05:33;;;;;;;;;;;19.10;99.90;;;;;;5071225;28;20303;-54
2022/07/21 05:07:58;;;;;;;;;;;19.10;99.90;;;;;;5071327;28;20380;-58
2022/07/21 05:10:24;;;;;;;;;;;19.10;99.90;;;;;;5071003;28;19919;-56
2022/07/21 05:12:49;;;;;;;;;;;19.20;99.90;;;;;;5071350;28;20346;-56
2022/07/21 05:15:17;;;;;;;;;;;19.20;99.90;;;;;;5070735;28;20273;-55
2022/07/21 05:17:43;;;;;;;;;;;19.20;99.90;;;;;;5070560;28;19909;-57
2022/07/21 05:20:09;;;;;;;;;;;19.20;99.90;;;;;;5070312;28;19966;-57
2022/07/21 05:22:35;;;;;;;;;;;19.20;99.90;;;;;;5064370;28;19919;-57
2022/07/21 05:25:00;;;;;;;;;;;19.20;99.90;;;;;;5070770;28;19916;-58
2022/07/21 05:27:26;;;;;;;;;;;19.30;99.90;;;;;;5070794;28;19936;-56
2022/07/21 05:29:51;;;;;;;;;;;19.30;99.90;;;;;;5070512;28;19912;-56
2022/07/21 05:32:17;;;;;;;;;;;19.30;99.90;;;;;;5064595;28;20371;-55
2022/07/21 05:34:42;;;;;;;;;;;19.40;99.90;;;;;;5070222;28;19966;-53
2022/07/21 05:37:08;;;;;;;;;;;19.50;99.90;;;;;;5071439;28;20353;-56
2022/07/21 05:39:33;;;;;;;;;;;19.60;99.90;;;;;;5070725;28;20398;-56
2022/07/21 05:41:59;;;;;;;;;;;19.60;99.90;;;;;;5070823;28;20053;-57
2022/07/21 05:44:24;;;;;;;;;;;19.60;99.90;;;;;;5070508;28;19920;-57
2022/07/21 05:46:50;;;;;;;;;;;19.70;99.90;;;;;;5067379;28;19920;-56
2022/07/21 05:49:15;;;;;;;;;;;19.70;99.90;;;;;;5070613;28;19981;-57
2022/07/21 05:51:41;;;;;;;;;;;19.70;99.90;;;;;;5070813;28;19912;-58
2022/07/21 05:54:06;;;;;;;;;;;19.70;99.90;;;;;;5070221;28;20512;-57
2022/07/21 05:56:32;;;;;;;;;;;19.70;99.90;;;;;;5035052;28;20349;-55
2022/07/21 05:58:57;;;;;;;;;;;19.70;99.90;;;;;;5067569;28;19920;-57
2022/07/21 06:01:23;;;;;;;;;;;19.70;99.90;;;;;;5066466;28;20401;-57
2022/07/21 06:03:49;;;;;;;;;;;19.80;99.90;;;;;;5066403;28;19999;-57
2022/07/21 06:06:16;;;;;;;;;;;19.90;99.90;;;;;;5069759;28;19917;-56
2022/07/21 06:08:42;;;;;;;;;;;19.90;99.90;;;;;;5070033;28;19993;-57
2022/07/21 06:11:08;;;;;;;;;;;20.00;99.90;;;;;;5051679;28;19916;-56
2022/07/21 06:13:33;;;;;;;;;;;20.00;99.90;;;;;;5069802;28;19913;-56
2022/07/21 06:15:59;;;;;;;;;;;20.10;99.90;;;;;;5069630;28;19951;-54
2022/07/21 06:18:25;;;;;;;;;;;20.10;99.90;;;;;;5070191;28;19909;-57
2022/07/21 06:20:51;;;;;;;;;;;20.10;99.90;;;;;;5070175;28;19912;-57
2022/07/21 06:23:16;;;;;;;;;;;20.10;99.90;;;;;;5069197;28;20001;-56
2022/07/21 06:25:42;;;;;;;;;;;20.10;99.90;;;;;;5059281;28;19912;-57
2022/07/21 06:28:07;;;;;;;;;;;20.10;99.90;;;;;;5072381;28;19943;-58
2022/07/21 06:30:33;;;;;;;;;;;20.10;99.90;;;;;;5078588;28;19995;-59
2022/07/21 06:32:59;;;;;;;;;;;20.10;99.90;;;;;;5082024;28;20002;-59
2022/07/21 06:35:25;;;;;;;;;;;20.10;99.90;;;;;;5055679;28;19925;-58
2022/07/21 06:37:50;;;;;;;;;;;20.10;99.90;;;;;;5078853;28;19958;-58
2022/07/21 06:40:16;;;;;;;;;;;20.10;99.90;;;;;;5082377;28;20425;-59
2022/07/21 06:42:42;;;;;;;;;;;20.10;99.90;;;;;;5062861;28;19912;-59
2022/07/21 06:45:07;;;;;;;;;;;20.20;99.90;;;;;;5080852;28;19961;-59
2022/07/21 06:47:33;;;;;;;;;;;20.20;99.90;;;;;;5078764;28;19908;-59
2022/07/21 06:50:04;;;;;;;;;;;20.20;99.90;;;;;;5078758;28;20393;-59
2022/07/21 06:52:31;;;;;;;;;;;20.20;99.90;;;;;;5074770;28;19912;-60
2022/07/21 06:54:56;;;;;;;;;;;20.20;99.90;;;;;;5072924;28;19917;-61
2022/07/21 06:57:22;;;;;;;;;;;20.20;99.90;;;;;;5073049;28;20483;-60
2022/07/21 06:59:48;;;;;;;;;;;20.30;99.90;;;;;;5072263;28;19920;-60
2022/07/21 07:02:13;;;;;;;;;;;20.30;99.90;;;;;;5061995;28;19920;-61
2022/07/21 07:04:39;;;;;;;;;;;20.40;99.90;;;;;;5070672;28;20262;-63
2022/07/21 07:07:05;;;;;;;;;;;20.40;99.90;;;;;;5068724;28;19919;-61
2022/07/21 07:09:30;;;;;;;;;;;20.50;99.90;;;;;;5071281;28;20442;-60
2022/07/21 07:12:03;;;;;;;;;;;20.50;99.90;;;;;;5070977;28;19913;-60
2022/07/21 07:14:32;;;;;;;;;;;20.50;99.90;;;;;;5070852;28;19920;-62
2022/07/21 07:16:58;;;;;;;;;;;20.60;99.90;;;;;;5070907;28;20381;-60
2022/07/21 07:19:24;;;;;;;;;;;20.60;99.90;;;;;;5071231;28;19923;-61
2022/07/21 07:21:49;;;;;;;;;;;20.70;99.90;;;;;;5070653;28;20326;-62
2022/07/21 07:24:15;;;;;;;;;;;20.80;99.90;;;;;;5070899;28;20487;-61
2022/07/21 07:26:40;;;;;;;;;;;20.80;99.90;;;;;;5070478;28;19952;-60
2022/07/21 07:29:06;;;;;;;;;;;20.80;99.90;;;;;;5070672;28;19923;-59
2022/07/21 07:31:31;;;;;;;;;;;20.80;99.90;;;;;;5076749;28;20373;-62
2022/07/21 07:33:57;;;;;;;;;;;20.80;99.90;;;;;;5076516;28;20011;-61
2022/07/21 07:36:23;;;;;;;;;;;20.90;99.90;;;;;;5066735;28;19970;-61
2022/07/21 07:38:49;;;;;;;;;;;21.00;99.90;;;;;;5067465;28;19924;-60
2022/07/21 07:41:14;;;;;;;;;;;21.00;99.90;;;;;;5069480;28;19920;-62
2022/07/21 07:43:40;;;;;;;;;;;20.90;99.90;;;;;;5048235;28;19927;-61
2022/07/21 07:46:07;;;;;;;;;;;21.00;99.90;;;;;;5074306;28;20035;-61
2022/07/21 07:48:34;;;;;;;;;;;21.00;99.90;;;;;;5074875;28;20395;-61
2022/07/21 07:50:59;;;;;;;;;;;21.10;99.90;;;;;;5076308;28;19977;-61
2022/07/21 07:53:25;;;;;;;;;;;21.20;99.90;;;;;;5072352;28;20369;-61
2022/07/21 07:55:50;;;;;;;;;;;21.30;99.90;;;;;;5070944;28;19925;-60
2022/07/21 07:58:16;;;;;;;;;;;21.30;99.90;;;;;;5076054;28;19980;-62
2022/07/21 08:00:41;;;;;;;;;;;21.30;99.90;;;;;;5072043;28;19916;-62
2022/07/21 08:03:07;;;;;;;;;;;21.20;99.90;;;;;;5071644;28;20321;-61
2022/07/21 08:05:32;;;;;;;;;;;21.20;99.90;;;;;;5070898;28;19912;-61
2022/07/21 08:07:58;;;;;;;;;;;21.20;99.90;;;;;;5072359;28;20281;-60
2022/07/21 08:10:24;;;;;;;;;;;21.20;99.90;;;;;;5072042;28;19952;-60
2022/07/21 08:12:49;;;;;;;;;;;21.20;99.90;;;;;;5072828;28;20767;-61
2022/07/21 08:15:15;;;;;;;;;;;21.20;99.90;;;;;;5071788;28;20015;-61
2022/07/21 08:17:41;;;;;;;;;;;21.30;99.90;;;;;;5071730;28;19965;-62
2022/07/21 08:20:07;;;;;;;;;;;21.30;99.90;;;;;;5070460;28;19913;-60
2022/07/21 08:22:33;;;;;;;;;;;21.30;99.90;;;;;;5069841;28;19913;-59
2022/07/21 08:24:58;;;;;;;;;;;21.40;99.90;;;;;;5068889;28;19913;-61
2022/07/21 08:27:24;;;;;;;;;;;21.40;99.90;;;;;;5069287;28;19913;-60
2022/07/21 08:29:49;;;;;;;;;;;21.50;99.90;;;;;;5070430;28;20374;-63
2022/07/21 08:32:17;;;;;;;;;;;21.70;99.90;;;;;;5073365;28;19920;-60
2022/07/21 08:34:43;;;;;;;;;;;21.70;99.90;;;;;;5079551;28;19923;-59
2022/07/21 08:37:09;;;;;;;;;;;21.80;99.90;;;;;;5072680;28;19913;-62
2022/07/21 08:39:34;;;;;;;;;;;21.80;99.90;;;;;;5073358;28;19960;-61
2022/07/21 08:42:01;;;;;;;;;;;21.80;99.90;;;;;;5069199;28;19912;-62
2022/07/21 08:44:26;;;;;;;;;;;21.90;99.90;;;;;;5068993;28;19912;-60
2022/07/21 08:46:52;;;;;;;;;;;22.00;99.90;;;;;;5066148;28;19913;-60
2022/07/21 08:49:21;;;;;;;;;;;22.00;99.90;;;;;;5071493;28;19921;-61
2022/07/21 08:51:48;;;;;;;;;;;22.00;99.90;;;;;;5068996;28;20288;-60
2022/07/21 08:54:13;;;;;;;;;;;22.00;99.90;;;;;;5066818;28;19977;-61
2022/07/21 08:56:39;;;;;;;;;;;22.10;99.90;;;;;;5070440;28;20365;-61
2022/07/21 08:59:05;;;;;;;;;;;22.20;99.90;;;;;;5068694;28;19958;-60
2022/07/21 09:01:31;;;;;;;;;;;22.30;99.90;;;;;;5078487;28;19990;-63
2022/07/21 09:04:16;;;;;;;;;;;22.40;99.90;;;;;;5076441;28;19912;-59
2022/07/21 09:06:49;;;;;;;;;;;22.50;99.90;;;;;;5077026;28;19916;-60
2022/07/21 09:09:21;;;;;;;;;;;22.50;99.90;;;;;;5068761;28;20008;-62
2022/07/21 09:11:46;;;;;;;;;;;22.50;99.90;;;;;;5070277;28;20377;-60
2022/07/21 09:14:18;;;;;;;;;;;22.50;99.90;;;;;;5068027;28;19916;-62
2022/07/21 09:16:47;;;;;;;;;;;22.50;99.90;;;;;;5067410;28;19935;-63
2022/07/21 09:19:23;;;;;;;;;;;22.40;99.90;;;;;;5067390;28;19933;-59
2022/07/21 09:21:49;;;;;;;;;;;22.50;99.90;;;;;;5069337;28;20381;-61
2022/07/21 09:24:15;;;;;;;;;;;22.60;99.90;;;;;;5067675;28;19917;-60
2022/07/21 09:26:58;;;;;;;;;;;22.70;99.90;;;;;;5068373;28;19912;-61
2022/07/21 09:29:24;;;;;;;;;;;22.70;99.90;;;;;;5068354;28;19913;-61
2022/07/21 09:31:50;;;;;;;;;;;22.60;99.90;;;;;;5071087;28;19919;-60
2022/07/21 09:34:15;;;;;;;;;;;22.70;99.90;;;;;;5075966;28;19927;-60
2022/07/21 09:36:57;;;;;;;;;;;22.90;99.90;;;;;;5074247;28;19946;-60
2022/07/21 09:39:39;;;;;;;;;;;23.00;99.90;;;;;;5075647;28;19932;-61
2022/07/21 09:42:12;;;;;;;;;;;23.10;99.90;;;;;;5073009;28;19912;-62
2022/07/21 09:44:37;;;;;;;;;;;23.10;99.90;;;;;;5073582;28;19935;-61
2022/07/21 09:47:11;;;;;;;;;;;23.10;99.90;;;;;;5067798;28;20021;-62
2022/07/21 09:49:37;;;;;;;;;;;23.10;99.90;;;;;;5065605;28;19920;-63
2022/07/21 09:52:16;;;;;;;;;;;23.10;99.90;;;;;;5066745;28;19999;-62
2022/07/21 09:54:42;;;;;;;;;;;22.90;99.90;;;;;;5065943;28;19986;-62
2022/07/21 09:57:07;;;;;;;;;;;22.90;99.90;;;;;;5066777;28;20013;-61
2022/07/21 09:59:33;;;;;;;;;;;22.90;99.90;;;;;;5067464;28;19921;-61
2022/07/21 10:01:58;;;;;;;;;;;22.80;99.90;;;;;;5067301;28;19920;-60
2022/07/21 10:04:24;;;;;;;;;;;22.80;99.90;;;;;;5067473;28;19916;-61
2022/07/21 10:06:50;;;;;;;;;;;22.70;99.60;;;;;;5069332;28;19924;-62
2022/07/21 10:09:15;;;;;;;;;;;22.60;99.90;;;;;;5071224;28;19926;-61
2022/07/21 10:11:41;;;;;;;;;;;22.60;99.90;;;;;;5071686;28;20274;-60
2022/07/21 10:14:08;;;;;;;;;;;22.70;99.90;;;;;;5071246;28;19947;-61
2022/07/21 10:16:34;;;;;;;;;;;22.70;99.80;;;;;;5071467;28;19920;-62
2022/07/21 10:19:10;;;;;;;;;;;22.70;99.70;;;;;;5068930;28;19924;-60
2022/07/21 10:21:41;;;;;;;;;;;22.70;99.90;;;;;;5067846;28;19944;-62
2022/07/21 10:24:09;;;;;;;;;;;22.70;99.90;;;;;;5071097;28;19916;-62
2022/07/21 10:26:35;;;;;;;;;;;22.80;99.90;;;;;;5071172;28;19916;-61
2022/07/21 10:29:00;;;;;;;;;;;22.90;99.90;;;;;;5048336;28;20288;-62
2022/07/21 10:31:27;;;;;;;;;;;22.90;99.80;;;;;;5065833;28;20403;-59
2022/07/21 10:33:54;;;;;;;;;;;22.90;99.90;;;;;;5070377;28;19916;-61
2022/07/21 10:36:29;;;;;;;;;;;22.90;99.90;;;;;;5073063;28;19925;-61
2022/07/21 10:39:06;;;;;;;;;;;23.00;99.90;;;;;;5078664;28;19912;-60
2022/07/21 10:41:42;;;;;;;;;;;23.00;99.90;;;;;;5072127;28;19970;-60
2022/07/21 10:44:26;;;;;;;;;;;23.00;99.70;;;;;;5071151;28;19913;-61
2022/07/21 10:47:00;;;;;;;;;;;22.90;99.40;;;;;;5070893;28;19917;-61
2022/07/21 10:49:44;;;;;;;;;;;22.80;99.20;;;;;;5070664;28;20065;-60
2022/07/21 10:52:28;;;;;;;;;;;22.70;99.30;;;;;;5069279;28;19916;-60
2022/07/21 10:55:09;;;;;;;;;;;22.80;99.90;;;;;;5070562;28;19934;-60
2022/07/21 10:57:35;;;;;;;;;;;22.90;99.40;;;;;;5070423;28;19920;-60
2022/07/21 11:00:19;;;;;;;;;;;22.90;99.10;;;;;;5069000;28;19913;-61
2022/07/21 11:02:55;;;;;;;;;;;22.90;99.20;;;;;;5070929;28;19920;-61
2022/07/21 11:05:21;;;;;;;;;;;22.90;99.40;;;;;;5070046;28;19912;-60
2022/07/21 11:08:05;;;;;;;;;;;22.90;99.50;;;;;;5071159;28;19917;-61
2022/07/21 11:10:31;;;;;;;;;;;23.00;98.50;;;;;;5070266;28;20053;-60
2022/07/21 11:12:58;;;;;;;;;;;23.00;98.50;;;;;;5070376;28;20011;-60
2022/07/21 11:15:42;;;;;;;;;;;23.00;98.50;;;;;;5070642;28;19920;-59
2022/07/21 11:18:07;;;;;;;;;;;23.00;98.70;;;;;;5068859;28;19995;-61
2022/07/21 11:20:33;;;;;;;;;;;23.10;99.10;;;;;;5070063;28;20086;-60
2022/07/21 11:23:03;;;;;;;;;;;23.20;98.70;;;;;;5070361;28;19916;-61
2022/07/21 11:25:29;;;;;;;;;;;23.30;99.00;;;;;;5068912;28;19923;-60
2022/07/21 11:27:54;;;;;;;;;;;23.40;99.00;;;;;;5070440;28;20373;-62
2022/07/21 11:30:20;;;;;;;;;;;23.60;97.90;;;;;;5070201;28;19923;-61
2022/07/21 11:32:46;;;;;;;;;;;23.70;98.10;;;;;;5069467;28;19919;-62
2022/07/21 11:35:12;;;;;;;;;;;23.70;97.80;;;;;;5069581;28;19916;-62
2022/07/21 11:37:42;;;;;;;;;;;23.70;97.20;;;;;;5075101;28;20385;-61
2022/07/21 11:40:14;;;;;;;;;;;23.60;97.20;;;;;;5070008;28;19920;-61
2022/07/21 11:42:40;;;;;;;;;;;23.60;96.60;;;;;;5068396;28;20365;-61
2022/07/21 11:45:06;;;;;;;;;;;23.60;96.20;;;;;;5071746;28;20050;-62
2022/07/21 11:47:32;;;;;;;;;;;23.70;96.30;;;;;;5071614;28;19966;-62
2022/07/21 11:49:59;;;;;;;;;;;23.80;96.90;;;;;;5053974;28;19924;-62
2022/07/21 11:52:29;;;;;;;;;;;23.80;95.30;;;;;;5067933;28;19913;-58
2022/07/21 11:54:55;;;;;;;;;;;23.90;95.90;;;;;;5073440;28;19912;-59
2022/07/21 11:57:21;;;;;;;;;;;24.00;96.40;;;;;;5072272;28;19995;-59
2022/07/21 11:59:48;;;;;;;;;;;24.10;95.70;;;;;;5072254;28;19954;-58
2022/07/21 12:02:14;;;;;;;;;;;24.30;96.00;;;;;;5071982;28;19915;-57
2022/07/21 12:04:49;;;;;;;;;;;24.30;95.50;;;;;;5071916;28;19909;-59
2022/07/21 12:07:29;;;;;;;;;;;24.50;95.70;;;;;;5071331;28;19908;-60
2022/07/21 12:10:01;;;;;;;;;;;24.60;95.00;;;;;;5071972;28;19908;-58
2022/07/21 12:12:28;;;;;;;;;;;24.70;94.50;;;;;;5071925;28;19908;-58
2022/07/21 12:14:53;;;;;;;;;;;24.70;94.40;;;;;;5071536;28;19912;-58
2022/07/21 12:17:32;;;;;;;;;;;24.70;93.20;;;;;;5071290;28;19912;-58
2022/07/21 12:19:58;;;;;;;;;;;24.60;93.00;;;;;;5071578;28;19915;-59
2022/07/21 12:22:33;;;;;;;;;;;24.60;93.30;;;;;;5068645;28;19934;-59
2022/07/21 12:24:59;;;;;;;;;;;24.60;92.80;;;;;;5071786;28;19908;-58
2022/07/21 12:27:25;;;;;;;;;;;24.50;92.70;;;;;;5071926;28;19909;-58
2022/07/21 12:29:51;;;;;;;;;;;24.50;92.80;;;;;;5071183;28;19908;-58
2022/07/21 12:32:36;;;;;;;;;;;24.60;92.50;;;;;;5071296;28;19919;-58
2022/07/21 12:35:02;;;;;;;;;;;24.60;92.40;;;;;;5071645;28;19955;-58
2022/07/21 12:38:03;;;;;;;;;;;24.60;92.50;;;;;;5053824;28;19956;-58
2022/07/21 12:40:30;;;;;;;;;;;24.70;92.70;;;;;;4990060;28;19910;-58
2022/07/21 12:43:12;;;;;;;;;;;24.80;92.60;;;;;;4988406;28;20361;-58
2022/07/21 12:45:48;;;;;;;;;;;25.00;92.20;;;;;;4989270;28;19910;-58
2022/07/21 12:48:14;;;;;;;;;;;25.00;93.20;;;;;;4989110;28;19925;-58
2022/07/21 12:50:40;;;;;;;;;;;25.10;92.00;;;;;;4987883;28;20423;-57
2022/07/21 12:53:12;;;;;;;;;;;25.10;92.60;;;;;;4989501;28;19929;-58
2022/07/21 12:55:38;;;;;;;;;;;25.20;91.80;;;;;;4986463;28;19921;-59
2022/07/21 12:58:04;;;;;;;;;;;25.30;91.40;;;;;;4989616;28;19914;-59
2022/07/21 13:00:29;;;;;;;;;;;25.20;90.60;;;;;;4989078;28;19909;-58
2022/07/21 13:02:55;;;;;;;;;;;25.30;91.10;;;;;;4989449;28;19965;-59
2022/07/21 13:05:22;;;;;;;;;;;25.20;91.10;;;;;;4989803;28;20382;-59
2022/07/21 13:07:47;;;;;;;;;;;25.20;90.60;;;;;;4989640;28;19976;-58
2022/07/21 13:10:13;;;;;;;;;;;25.30;90.20;;;;;;4987810;28;20422;-58
2022/07/21 13:12:39;;;;;;;;;;;25.20;90.80;;;;;;4984857;28;19909;-59
2022/07/21 13:15:05;;;;;;;;;;;25.30;89.60;;;;;;5034618;28;19916;-58
2022/07/21 13:17:30;;;;;;;;;;;25.20;90.00;;;;;;5050883;28;20349;-58
2022/07/21 13:19:56;;;;;;;;;;;25.30;89.30;;;;;;5051041;28;19913;-58
2022/07/21 13:22:24;;;;;;;;;;;25.30;90.20;;;;;;5047799;28;19913;-58
2022/07/21 13:24:50;;;;;;;;;;;25.30;90.00;;;;;;5044460;28;19912;-58
2022/07/21 13:27:15;;;;;;;;;;;25.30;89.30;;;;;;5049662;28;19916;-57
2022/07/21 13:29:41;;;;;;;;;;;25.30;89.70;;;;;;5046184;28;19944;-56
2022/07/21 13:32:07;;;;;;;;;;;25.30;90.10;;;;;;5050245;28;20022;-57
2022/07/21 13:34:32;;;;;;;;;;;25.30;90.30;;;;;;5050845;28;20511;-58
2022/07/21 13:36:58;;;;;;;;;;;25.40;89.70;;;;;;5050726;28;19917;-57
2022/07/21 13:39:26;;;;;;;;;;;25.40;89.30;;;;;;5050438;28;19916;-59
2022/07/21 13:41:55;;;;;;;;;;;25.40;89.50;;;;;;5054860;28;19909;-58
2022/07/21 13:44:20;;;;;;;;;;;25.40;89.20;;;;;;5051464;28;19913;-57
2022/07/21 13:46:46;;;;;;;;;;;25.40;88.70;;;;;;5052802;28;20397;-58
2022/07/21 13:49:11;;;;;;;;;;;25.50;90.10;;;;;;5060245;28;20282;-57
2022/07/21 13:51:37;;;;;;;;;;;25.40;88.30;;;;;;5075176;28;19908;-58
2022/07/21 13:54:03;;;;;;;;;;;25.50;89.10;;;;;;5067703;28;19921;-58
2022/07/21 13:56:28;;;;;;;;;;;25.60;88.10;;;;;;5074558;28;19923;-58
2022/07/21 13:58:54;;;;;;;;;;;25.70;88.80;;;;;;5074222;28;20270;-58
2022/07/21 14:01:19;;;;;;;;;;;25.70;87.40;;;;;;5074964;28;19919;-58
2022/07/21 14:03:45;;;;;;;;;;;25.80;87.30;;;;;;5074638;28;20378;-58
2022/07/21 14:06:11;;;;;;;;;;;25.80;86.30;;;;;;5074353;28;20020;-58
2022/07/21 14:08:37;;;;;;;;;;;25.80;86.60;;;;;;5074739;28;20031;-58
2022/07/21 14:11:03;;;;;;;;;;;25.80;84.00;;;;;;5074286;28;19908;-58
2022/07/21 14:13:28;;;;;;;;;;;25.70;85.70;;;;;;5073383;28;19908;-58
2022/07/21 14:15:54;;;;;;;;;;;25.70;83.80;;;;;;5074643;28;19969;-59
2022/07/21 14:18:19;;;;;;;;;;;25.80;85.10;;;;;;5072266;28;20000;-59
2022/07/21 14:20:45;;;;;;;;;;;25.80;85.10;;;;;;5073625;28;19908;-58